sensor_id;sensor_type;location;lat;lon;timestamp;P1;durP1;ratioP1;P2;durP2;ratioP2
6791;SDS011;3433;48.730;9.108;2023-03-01T00:01:09;27.33;;;12.60;;
6791;SDS011;3433;48.730;9.108;2023-03-01T00:03:57;24.00;;;12.90;;
6791;SDS011;3433;48.730;9.108;2023-03-01T00:06:46;25.70;;;13.30;;
6791;SDS011;3433;48.730;9.108;2023-03-01T00:09:35;22.50;;;12.37;;
6791;SDS011;3433;48.730;9.108;2023-03-01T00:12:23;22.40;;;11.27;;
6791;SDS011;3433;48.730;9.108;2023-03-01T00:15:10;21.73;;;11.47;;
6791;SDS011;3433;48.730;9.108;2023-03-01T00:17:58;24.97;;;13.17;;
6791;SDS011;3433;48.730;9.108;2023-03-01T00:20:48;21.27;;;11.60;;
6791;SDS011;3433;48.730;9.108;2023-03-01T00:23:39;28.03;;;12.83;;
6791;SDS011;3433;48.730;9.108;2023-03-01T00:26:27;21.80;;;12.77;;
6791;SDS011;3433;48.730;9.108;2023-03-01T00:29:14;21.93;;;12.40;;
6791;SDS011;3433;48.730;9.108;2023-03-01T00:32:01;20.33;;;12.90;;
6791;SDS011;3433;48.730;9.108;2023-03-01T00:34:49;20.30;;;11.87;;
6791;SDS011;3433;48.730;9.108;2023-03-01T00:37:40;22.47;;;11.13;;
6791;SDS011;3433;48.730;9.108;2023-03-01T00:40:31;23.90;;;12.00;;
6791;SDS011;3433;48.730;9.108;2023-03-01T00:43:19;21.43;;;11.97;;
6791;SDS011;3433;48.730;9.108;2023-03-01T00:46:07;22.97;;;12.70;;
6791;SDS011;3433;48.730;9.108;2023-03-01T00:48:55;21.97;;;12.50;;
6791;SDS011;3433;48.730;9.108;2023-03-01T00:51:43;18.47;;;11.97;;
6791;SDS011;3433;48.730;9.108;2023-03-01T00:54:30;21.63;;;12.90;;
6791;SDS011;3433;48.730;9.108;2023-03-01T00:57:19;21.10;;;11.37;;
6791;SDS011;3433;48.730;9.108;2023-03-01T01:00:07;21.70;;;11.57;;
6791;SDS011;3433;48.730;9.108;2023-03-01T01:02:56;22.57;;;12.10;;
6791;SDS011;3433;48.730;9.108;2023-03-01T01:05:44;23.30;;;11.37;;
6791;SDS011;3433;48.730;9.108;2023-03-01T01:08:31;21.70;;;12.13;;
6791;SDS011;3433;48.730;9.108;2023-03-01T01:11:19;24.00;;;12.00;;
6791;SDS011;3433;48.730;9.108;2023-03-01T01:14:08;25.77;;;13.07;;
6791;SDS011;3433;48.730;9.108;2023-03-01T01:16:56;23.27;;;12.50;;
6791;SDS011;3433;48.730;9.108;2023-03-01T01:19:43;26.93;;;12.07;;
6791;SDS011;3433;48.730;9.108;2023-03-01T01:22:30;18.87;;;12.03;;
6791;SDS011;3433;48.730;9.108;2023-03-01T01:25:18;20.57;;;12.37;;
6791;SDS011;3433;48.730;9.108;2023-03-01T01:28:06;21.70;;;12.00;;
6791;SDS011;3433;48.730;9.108;2023-03-01T01:30:54;21.93;;;12.50;;
6791;SDS011;3433;48.730;9.108;2023-03-01T01:33:42;20.10;;;11.17;;
6791;SDS011;3433;48.730;9.108;2023-03-01T01:36:29;31.03;;;12.40;;
6791;SDS011;3433;48.730;9.108;2023-03-01T01:39:18;22.23;;;11.47;;
6791;SDS011;3433;48.730;9.108;2023-03-01T01:42:05;18.67;;;11.37;;
6791;SDS011;3433;48.730;9.108;2023-03-01T01:48:16;21.07;;;10.70;;
6791;SDS011;3433;48.730;9.108;2023-03-01T01:51:09;21.87;;;11.30;;
6791;SDS011;3433;48.730;9.108;2023-03-01T01:54:00;26.43;;;11.97;;
6791;SDS011;3433;48.730;9.108;2023-03-01T01:56:48;21.20;;;12.30;;
6791;SDS011;3433;48.730;9.108;2023-03-01T01:59:38;21.63;;;11.90;;
6791;SDS011;3433;48.730;9.108;2023-03-01T02:02:28;23.87;;;12.60;;
6791;SDS011;3433;48.730;9.108;2023-03-01T02:05:18;27.73;;;12.03;;
6791;SDS011;3433;48.730;9.108;2023-03-01T02:08:12;21.30;;;11.60;;
6791;SDS011;3433;48.730;9.108;2023-03-01T02:11:01;22.03;;;11.43;;
6791;SDS011;3433;48.730;9.108;2023-03-01T02:13:49;23.23;;;12.90;;
6791;SDS011;3433;48.730;9.108;2023-03-01T02:16:37;20.93;;;12.30;;
6791;SDS011;3433;48.730;9.108;2023-03-01T02:19:27;25.60;;;12.80;;
6791;SDS011;3433;48.730;9.108;2023-03-01T02:22:24;24.27;;;11.97;;
6791;SDS011;3433;48.730;9.108;2023-03-01T02:25:22;24.23;;;12.57;;
6791;SDS011;3433;48.730;9.108;2023-03-01T02:28:27;19.20;;;11.07;;
6791;SDS011;3433;48.730;9.108;2023-03-01T02:31:17;28.57;;;14.37;;
6791;SDS011;3433;48.730;9.108;2023-03-01T02:34:24;22.30;;;11.30;;
6791;SDS011;3433;48.730;9.108;2023-03-01T02:37:13;22.77;;;13.13;;
6791;SDS011;3433;48.730;9.108;2023-03-01T02:40:06;26.37;;;12.90;;
6791;SDS011;3433;48.730;9.108;2023-03-01T02:42:57;21.10;;;12.80;;
6791;SDS011;3433;48.730;9.108;2023-03-01T02:45:49;23.63;;;12.30;;
6791;SDS011;3433;48.730;9.108;2023-03-01T02:48:40;25.47;;;13.40;;
6791;SDS011;3433;48.730;9.108;2023-03-01T02:51:37;25.33;;;13.10;;
6791;SDS011;3433;48.730;9.108;2023-03-01T02:54:33;26.20;;;14.20;;
6791;SDS011;3433;48.730;9.108;2023-03-01T02:57:26;26.40;;;13.83;;
6791;SDS011;3433;48.730;9.108;2023-03-01T03:00:17;25.73;;;14.17;;
6791;SDS011;3433;48.730;9.108;2023-03-01T03:03:08;27.90;;;14.40;;
6791;SDS011;3433;48.730;9.108;2023-03-01T03:05:59;32.73;;;13.40;;
6791;SDS011;3433;48.730;9.108;2023-03-01T03:08:46;29.10;;;15.03;;
6791;SDS011;3433;48.730;9.108;2023-03-01T03:11:33;21.27;;;13.40;;
6791;SDS011;3433;48.730;9.108;2023-03-01T03:14:22;26.13;;;14.07;;
6791;SDS011;3433;48.730;9.108;2023-03-01T03:17:09;28.03;;;14.27;;
6791;SDS011;3433;48.730;9.108;2023-03-01T03:19:57;26.60;;;14.63;;
6791;SDS011;3433;48.730;9.108;2023-03-01T03:22:47;28.33;;;13.27;;
6791;SDS011;3433;48.730;9.108;2023-03-01T03:25:36;25.10;;;13.27;;
6791;SDS011;3433;48.730;9.108;2023-03-01T03:28:23;28.23;;;14.00;;
6791;SDS011;3433;48.730;9.108;2023-03-01T03:31:11;27.70;;;14.93;;
6791;SDS011;3433;48.730;9.108;2023-03-01T03:33:58;26.20;;;14.47;;
6791;SDS011;3433;48.730;9.108;2023-03-01T03:36:47;26.23;;;12.97;;
6791;SDS011;3433;48.730;9.108;2023-03-01T03:39:34;24.63;;;13.47;;
6791;SDS011;3433;48.730;9.108;2023-03-01T03:42:21;27.37;;;13.93;;
6791;SDS011;3433;48.730;9.108;2023-03-01T03:45:08;29.43;;;14.37;;
6791;SDS011;3433;48.730;9.108;2023-03-01T03:47:56;32.30;;;15.20;;
6791;SDS011;3433;48.730;9.108;2023-03-01T03:50:47;28.53;;;13.60;;
6791;SDS011;3433;48.730;9.108;2023-03-01T03:53:36;33.37;;;14.80;;
6791;SDS011;3433;48.730;9.108;2023-03-01T03:56:24;24.50;;;13.37;;
6791;SDS011;3433;48.730;9.108;2023-03-01T03:59:11;29.00;;;14.87;;
6791;SDS011;3433;48.730;9.108;2023-03-01T04:01:58;25.93;;;14.13;;
6791;SDS011;3433;48.730;9.108;2023-03-01T04:04:46;32.50;;;14.70;;
6791;SDS011;3433;48.730;9.108;2023-03-01T04:07:35;27.20;;;15.63;;
6791;SDS011;3433;48.730;9.108;2023-03-01T04:10:24;32.40;;;14.50;;
6791;SDS011;3433;48.730;9.108;2023-03-01T04:13:12;26.83;;;14.43;;
6791;SDS011;3433;48.730;9.108;2023-03-01T04:16:00;25.70;;;15.17;;
6791;SDS011;3433;48.730;9.108;2023-03-01T04:18:47;25.47;;;14.07;;
6791;SDS011;3433;48.730;9.108;2023-03-01T04:21:35;29.57;;;14.67;;
6791;SDS011;3433;48.730;9.108;2023-03-01T04:24:22;29.70;;;15.50;;
6791;SDS011;3433;48.730;9.108;2023-03-01T04:27:11;28.30;;;14.80;;
6791;SDS011;3433;48.730;9.108;2023-03-01T04:29:58;27.53;;;14.07;;
6791;SDS011;3433;48.730;9.108;2023-03-01T04:32:45;28.67;;;15.93;;
6791;SDS011;3433;48.730;9.108;2023-03-01T04:35:32;26.50;;;14.33;;
6791;SDS011;3433;48.730;9.108;2023-03-01T04:38:22;29.80;;;14.30;;
6791;SDS011;3433;48.730;9.108;2023-03-01T04:41:10;25.47;;;15.20;;
6791;SDS011;3433;48.730;9.108;2023-03-01T04:43:59;28.07;;;14.47;;
6791;SDS011;3433;48.730;9.108;2023-03-01T04:46:48;32.33;;;16.37;;
6791;SDS011;3433;48.730;9.108;2023-03-01T04:49:35;32.10;;;15.37;;
6791;SDS011;3433;48.730;9.108;2023-03-01T04:52:22;29.47;;;15.30;;
6791;SDS011;3433;48.730;9.108;2023-03-01T04:55:10;28.43;;;14.60;;
6791;SDS011;3433;48.730;9.108;2023-03-01T04:57:58;32.20;;;15.43;;
6791;SDS011;3433;48.730;9.108;2023-03-01T05:00:47;28.67;;;14.63;;
6791;SDS011;3433;48.730;9.108;2023-03-01T05:03:36;26.40;;;14.27;;
6791;SDS011;3433;48.730;9.108;2023-03-01T05:06:24;30.27;;;15.67;;
6791;SDS011;3433;48.730;9.108;2023-03-01T05:09:11;35.50;;;16.30;;
6791;SDS011;3433;48.730;9.108;2023-03-01T05:11:58;29.57;;;15.60;;
6791;SDS011;3433;48.730;9.108;2023-03-01T05:14:45;32.23;;;16.97;;
6791;SDS011;3433;48.730;9.108;2023-03-01T05:17:34;30.73;;;15.97;;
6791;SDS011;3433;48.730;9.108;2023-03-01T05:20:21;31.27;;;15.03;;
6791;SDS011;3433;48.730;9.108;2023-03-01T05:23:10;40.40;;;17.33;;
6791;SDS011;3433;48.730;9.108;2023-03-01T05:25:58;30.20;;;15.57;;
6791;SDS011;3433;48.730;9.108;2023-03-01T05:28:45;37.43;;;17.60;;
6791;SDS011;3433;48.730;9.108;2023-03-01T05:31:32;30.67;;;16.27;;
6791;SDS011;3433;48.730;9.108;2023-03-01T05:34:23;29.07;;;15.13;;
6791;SDS011;3433;48.730;9.108;2023-03-01T05:37:11;27.43;;;14.90;;
6791;SDS011;3433;48.730;9.108;2023-03-01T05:39:58;32.27;;;16.23;;
6791;SDS011;3433;48.730;9.108;2023-03-01T05:42:46;26.50;;;15.23;;
6791;SDS011;3433;48.730;9.108;2023-03-01T05:45:35;27.30;;;15.37;;
6791;SDS011;3433;48.730;9.108;2023-03-01T05:48:23;37.67;;;16.90;;
6791;SDS011;3433;48.730;9.108;2023-03-01T05:51:12;29.70;;;17.17;;
6791;SDS011;3433;48.730;9.108;2023-03-01T05:53:59;32.13;;;15.30;;
6791;SDS011;3433;48.730;9.108;2023-03-01T05:56:47;28.27;;;14.90;;
6791;SDS011;3433;48.730;9.108;2023-03-01T05:59:34;33.07;;;16.20;;
6791;SDS011;3433;48.730;9.108;2023-03-01T06:02:22;30.63;;;14.80;;
6791;SDS011;3433;48.730;9.108;2023-03-01T06:05:10;32.33;;;16.57;;
6791;SDS011;3433;48.730;9.108;2023-03-01T06:08:00;33.97;;;16.70;;
6791;SDS011;3433;48.730;9.108;2023-03-01T06:10:47;28.33;;;15.80;;
6791;SDS011;3433;48.730;9.108;2023-03-01T06:13:35;26.73;;;15.10;;
6791;SDS011;3433;48.730;9.108;2023-03-01T06:16:22;30.20;;;16.33;;
6791;SDS011;3433;48.730;9.108;2023-03-01T06:19:09;32.07;;;17.20;;
6791;SDS011;3433;48.730;9.108;2023-03-01T06:21:56;34.60;;;15.43;;
6791;SDS011;3433;48.730;9.108;2023-03-01T06:24:45;29.17;;;16.67;;
6791;SDS011;3433;48.730;9.108;2023-03-01T06:27:32;26.80;;;15.60;;
6791;SDS011;3433;48.730;9.108;2023-03-01T06:30:20;29.70;;;17.27;;
6791;SDS011;3433;48.730;9.108;2023-03-01T06:33:08;31.10;;;15.47;;
6791;SDS011;3433;48.730;9.108;2023-03-01T06:35:55;27.43;;;16.40;;
6791;SDS011;3433;48.730;9.108;2023-03-01T06:38:43;31.70;;;16.20;;
6791;SDS011;3433;48.730;9.108;2023-03-01T06:41:31;31.93;;;15.37;;
6791;SDS011;3433;48.730;9.108;2023-03-01T06:44:19;33.93;;;15.20;;
6791;SDS011;3433;48.730;9.108;2023-03-01T06:47:06;32.87;;;17.07;;
6791;SDS011;3433;48.730;9.108;2023-03-01T06:49:53;26.83;;;14.97;;
6791;SDS011;3433;48.730;9.108;2023-03-01T06:52:41;31.43;;;15.23;;
6791;SDS011;3433;48.730;9.108;2023-03-01T06:55:30;26.20;;;15.50;;
6791;SDS011;3433;48.730;9.108;2023-03-01T06:58:18;30.97;;;16.07;;
6791;SDS011;3433;48.730;9.108;2023-03-01T07:01:06;26.70;;;15.73;;
6791;SDS011;3433;48.730;9.108;2023-03-01T07:03:53;36.00;;;16.63;;
6791;SDS011;3433;48.730;9.108;2023-03-01T07:06:40;33.37;;;17.23;;
6791;SDS011;3433;48.730;9.108;2023-03-01T07:09:28;29.57;;;16.23;;
6791;SDS011;3433;48.730;9.108;2023-03-01T07:12:15;30.97;;;17.23;;
6791;SDS011;3433;48.730;9.108;2023-03-01T07:15:04;30.63;;;16.47;;
6791;SDS011;3433;48.730;9.108;2023-03-01T07:17:55;29.77;;;15.67;;
6791;SDS011;3433;48.730;9.108;2023-03-01T07:20:43;32.47;;;16.83;;
6791;SDS011;3433;48.730;9.108;2023-03-01T07:23:30;38.40;;;17.90;;
6791;SDS011;3433;48.730;9.108;2023-03-01T07:26:17;31.73;;;16.90;;
6791;SDS011;3433;48.730;9.108;2023-03-01T07:29:05;31.97;;;16.30;;
6791;SDS011;3433;48.730;9.108;2023-03-01T07:31:55;35.07;;;16.97;;
6791;SDS011;3433;48.730;9.108;2023-03-01T07:34:42;31.17;;;16.40;;
6791;SDS011;3433;48.730;9.108;2023-03-01T07:37:29;31.50;;;17.20;;
6791;SDS011;3433;48.730;9.108;2023-03-01T07:40:16;34.90;;;16.67;;
6791;SDS011;3433;48.730;9.108;2023-03-01T07:43:04;32.67;;;16.13;;
6791;SDS011;3433;48.730;9.108;2023-03-01T07:45:51;34.83;;;17.77;;
6791;SDS011;3433;48.730;9.108;2023-03-01T07:48:40;32.17;;;16.57;;
6791;SDS011;3433;48.730;9.108;2023-03-01T07:51:27;32.77;;;17.43;;
6791;SDS011;3433;48.730;9.108;2023-03-01T07:54:14;36.47;;;17.00;;
6791;SDS011;3433;48.730;9.108;2023-03-01T07:57:01;33.80;;;17.07;;
6791;SDS011;3433;48.730;9.108;2023-03-01T07:59:49;27.37;;;15.80;;
6791;SDS011;3433;48.730;9.108;2023-03-01T08:02:36;38.23;;;18.00;;
6791;SDS011;3433;48.730;9.108;2023-03-01T08:05:24;34.70;;;17.97;;
6791;SDS011;3433;48.730;9.108;2023-03-01T08:08:11;27.00;;;15.93;;
6791;SDS011;3433;48.730;9.108;2023-03-01T08:10:59;38.30;;;17.70;;
6791;SDS011;3433;48.730;9.108;2023-03-01T08:13:48;34.27;;;17.20;;
6791;SDS011;3433;48.730;9.108;2023-03-01T08:16:35;33.93;;;17.77;;
6791;SDS011;3433;48.730;9.108;2023-03-01T08:19:23;33.13;;;18.07;;
6791;SDS011;3433;48.730;9.108;2023-03-01T08:22:11;30.60;;;17.30;;
6791;SDS011;3433;48.730;9.108;2023-03-01T08:24:59;29.20;;;16.90;;
6791;SDS011;3433;48.730;9.108;2023-03-01T08:27:46;33.23;;;18.40;;
6791;SDS011;3433;48.730;9.108;2023-03-01T08:30:33;29.43;;;17.27;;
6791;SDS011;3433;48.730;9.108;2023-03-01T08:33:21;33.63;;;17.90;;
6791;SDS011;3433;48.730;9.108;2023-03-01T08:36:08;31.60;;;17.60;;
6791;SDS011;3433;48.730;9.108;2023-03-01T08:38:57;39.23;;;18.60;;
6791;SDS011;3433;48.730;9.108;2023-03-01T08:41:45;30.47;;;16.57;;
6791;SDS011;3433;48.730;9.108;2023-03-01T08:44:33;32.47;;;18.67;;
6791;SDS011;3433;48.730;9.108;2023-03-01T08:47:20;31.57;;;17.53;;
6791;SDS011;3433;48.730;9.108;2023-03-01T08:50:08;30.30;;;17.00;;
6791;SDS011;3433;48.730;9.108;2023-03-01T08:52:56;35.17;;;18.53;;
6791;SDS011;3433;48.730;9.108;2023-03-01T08:55:44;30.30;;;17.67;;
6791;SDS011;3433;48.730;9.108;2023-03-01T08:58:31;37.00;;;18.97;;
6791;SDS011;3433;48.730;9.108;2023-03-01T09:01:19;32.33;;;17.93;;
6791;SDS011;3433;48.730;9.108;2023-03-01T09:04:06;34.47;;;19.20;;
6791;SDS011;3433;48.730;9.108;2023-03-01T09:06:53;36.93;;;18.10;;
6791;SDS011;3433;48.730;9.108;2023-03-01T09:09:40;32.13;;;17.70;;
6791;SDS011;3433;48.730;9.108;2023-03-01T09:12:29;32.57;;;17.83;;
6791;SDS011;3433;48.730;9.108;2023-03-01T09:15:16;30.33;;;17.23;;
6791;SDS011;3433;48.730;9.108;2023-03-01T09:18:03;33.17;;;19.33;;
6791;SDS011;3433;48.730;9.108;2023-03-01T09:20:51;37.07;;;17.87;;
6791;SDS011;3433;48.730;9.108;2023-03-01T09:23:40;36.77;;;17.60;;
6791;SDS011;3433;48.730;9.108;2023-03-01T09:26:29;34.00;;;18.83;;
6791;SDS011;3433;48.730;9.108;2023-03-01T09:29:17;33.03;;;19.80;;
6791;SDS011;3433;48.730;9.108;2023-03-01T09:32:05;30.33;;;18.93;;
6791;SDS011;3433;48.730;9.108;2023-03-01T09:34:53;35.87;;;18.80;;
6791;SDS011;3433;48.730;9.108;2023-03-01T09:37:50;37.90;;;20.50;;
6791;SDS011;3433;48.730;9.108;2023-03-01T09:40:41;34.80;;;18.60;;
6791;SDS011;3433;48.730;9.108;2023-03-01T09:43:31;33.27;;;18.33;;
6791;SDS011;3433;48.730;9.108;2023-03-01T09:46:29;34.90;;;19.63;;
6791;SDS011;3433;48.730;9.108;2023-03-01T09:49:23;39.80;;;19.70;;
6791;SDS011;3433;48.730;9.108;2023-03-01T09:52:12;29.10;;;17.47;;
6791;SDS011;3433;48.730;9.108;2023-03-01T09:55:09;35.90;;;18.40;;
6791;SDS011;3433;48.730;9.108;2023-03-01T09:57:59;36.47;;;19.10;;
6791;SDS011;3433;48.730;9.108;2023-03-01T10:00:53;31.87;;;19.33;;
6791;SDS011;3433;48.730;9.108;2023-03-01T10:03:50;36.03;;;19.77;;
6791;SDS011;3433;48.730;9.108;2023-03-01T10:06:50;32.60;;;18.50;;
6791;SDS011;3433;48.730;9.108;2023-03-01T10:09:44;32.80;;;19.13;;
6791;SDS011;3433;48.730;9.108;2023-03-01T10:12:34;37.90;;;19.60;;
6791;SDS011;3433;48.730;9.108;2023-03-01T10:15:25;33.77;;;19.13;;
6791;SDS011;3433;48.730;9.108;2023-03-01T10:18:20;29.83;;;18.33;;
6791;SDS011;3433;48.730;9.108;2023-03-01T10:21:14;35.30;;;19.40;;
6791;SDS011;3433;48.730;9.108;2023-03-01T10:24:08;29.13;;;17.70;;
6791;SDS011;3433;48.730;9.108;2023-03-01T10:26:59;33.53;;;18.33;;
6791;SDS011;3433;48.730;9.108;2023-03-01T10:29:53;32.90;;;18.60;;
6791;SDS011;3433;48.730;9.108;2023-03-01T10:32:50;32.57;;;18.57;;
6791;SDS011;3433;48.730;9.108;2023-03-01T10:35:40;31.43;;;18.20;;
6791;SDS011;3433;48.730;9.108;2023-03-01T10:38:29;27.33;;;17.00;;
6791;SDS011;3433;48.730;9.108;2023-03-01T10:41:18;33.97;;;18.40;;
6791;SDS011;3433;48.730;9.108;2023-03-01T10:44:05;29.57;;;18.50;;
6791;SDS011;3433;48.730;9.108;2023-03-01T10:46:58;31.47;;;18.67;;
6791;SDS011;3433;48.730;9.108;2023-03-01T10:49:55;28.97;;;17.37;;
6791;SDS011;3433;48.730;9.108;2023-03-01T10:52:44;33.37;;;18.90;;
6791;SDS011;3433;48.730;9.108;2023-03-01T10:55:46;32.00;;;18.10;;
6791;SDS011;3433;48.730;9.108;2023-03-01T10:58:34;31.90;;;19.37;;
6791;SDS011;3433;48.730;9.108;2023-03-01T11:01:26;29.03;;;17.83;;
6791;SDS011;3433;48.730;9.108;2023-03-01T11:04:17;32.93;;;18.70;;
6791;SDS011;3433;48.730;9.108;2023-03-01T11:07:04;29.83;;;17.17;;
6791;SDS011;3433;48.730;9.108;2023-03-01T11:09:51;30.40;;;17.93;;
6791;SDS011;3433;48.730;9.108;2023-03-01T11:12:40;31.50;;;19.13;;
6791;SDS011;3433;48.730;9.108;2023-03-01T11:15:27;34.97;;;18.63;;
6791;SDS011;3433;48.730;9.108;2023-03-01T11:18:18;26.30;;;17.03;;
6791;SDS011;3433;48.730;9.108;2023-03-01T11:21:08;32.13;;;17.50;;
6791;SDS011;3433;48.730;9.108;2023-03-01T11:23:56;31.13;;;18.53;;
6791;SDS011;3433;48.730;9.108;2023-03-01T11:26:52;27.77;;;16.73;;
6791;SDS011;3433;48.730;9.108;2023-03-01T11:29:42;30.40;;;18.50;;
6791;SDS011;3433;48.730;9.108;2023-03-01T11:32:34;28.20;;;17.27;;
6791;SDS011;3433;48.730;9.108;2023-03-01T11:35:29;28.07;;;17.63;;
6791;SDS011;3433;48.730;9.108;2023-03-01T11:38:20;26.47;;;16.70;;
6791;SDS011;3433;48.730;9.108;2023-03-01T11:41:11;26.03;;;17.70;;
6791;SDS011;3433;48.730;9.108;2023-03-01T11:44:02;24.23;;;15.93;;
6791;SDS011;3433;48.730;9.108;2023-03-01T11:47:06;29.23;;;17.50;;
6791;SDS011;3433;48.730;9.108;2023-03-01T11:50:13;25.90;;;16.73;;
6791;SDS011;3433;48.730;9.108;2023-03-01T11:53:22;26.17;;;16.30;;
6791;SDS011;3433;48.730;9.108;2023-03-01T11:56:20;26.87;;;18.50;;
6791;SDS011;3433;48.730;9.108;2023-03-01T11:59:31;29.50;;;17.93;;
6791;SDS011;3433;48.730;9.108;2023-03-01T12:02:49;27.83;;;17.90;;
6791;SDS011;3433;48.730;9.108;2023-03-01T12:06:05;27.57;;;16.67;;
6791;SDS011;3433;48.730;9.108;2023-03-01T12:09:17;26.53;;;16.90;;
6791;SDS011;3433;48.730;9.108;2023-03-01T12:12:23;30.97;;;18.80;;
6791;SDS011;3433;48.730;9.108;2023-03-01T12:15:33;27.03;;;17.10;;
6791;SDS011;3433;48.730;9.108;2023-03-01T12:18:40;24.53;;;15.83;;
6791;SDS011;3433;48.730;9.108;2023-03-01T12:25:05;26.67;;;16.17;;
6791;SDS011;3433;48.730;9.108;2023-03-01T12:31:37;26.10;;;16.10;;
6791;SDS011;3433;48.730;9.108;2023-03-01T12:34:57;27.57;;;17.20;;
6791;SDS011;3433;48.730;9.108;2023-03-01T12:38:10;25.50;;;16.63;;
6791;SDS011;3433;48.730;9.108;2023-03-01T12:41:21;28.73;;;17.97;;
6791;SDS011;3433;48.730;9.108;2023-03-01T12:44:30;29.80;;;18.03;;
6791;SDS011;3433;48.730;9.108;2023-03-01T12:47:37;27.60;;;16.40;;
6791;SDS011;3433;48.730;9.108;2023-03-01T12:50:42;26.83;;;15.57;;
6791;SDS011;3433;48.730;9.108;2023-03-01T12:53:35;24.97;;;15.57;;
6791;SDS011;3433;48.730;9.108;2023-03-01T12:56:26;27.03;;;17.20;;
6791;SDS011;3433;48.730;9.108;2023-03-01T12:59:17;23.23;;;15.67;;
6791;SDS011;3433;48.730;9.108;2023-03-01T13:02:10;23.90;;;16.60;;
6791;SDS011;3433;48.730;9.108;2023-03-01T13:05:17;23.83;;;16.40;;
6791;SDS011;3433;48.730;9.108;2023-03-01T13:08:15;21.53;;;15.00;;
6791;SDS011;3433;48.730;9.108;2023-03-01T13:11:06;23.13;;;15.90;;
6791;SDS011;3433;48.730;9.108;2023-03-01T13:17:41;20.30;;;15.13;;
6791;SDS011;3433;48.730;9.108;2023-03-01T13:20:33;25.43;;;15.70;;
6791;SDS011;3433;48.730;9.108;2023-03-01T13:23:34;21.53;;;14.90;;
6791;SDS011;3433;48.730;9.108;2023-03-01T13:26:23;20.27;;;14.27;;
6791;SDS011;3433;48.730;9.108;2023-03-01T13:29:11;22.83;;;14.13;;
6791;SDS011;3433;48.730;9.108;2023-03-01T13:32:19;20.33;;;13.70;;
6791;SDS011;3433;48.730;9.108;2023-03-01T13:38:38;21.83;;;14.50;;
6791;SDS011;3433;48.730;9.108;2023-03-01T13:41:48;21.77;;;14.80;;
6791;SDS011;3433;48.730;9.108;2023-03-01T13:44:37;23.20;;;15.63;;
6791;SDS011;3433;48.730;9.108;2023-03-01T13:47:26;21.83;;;13.77;;
6791;SDS011;3433;48.730;9.108;2023-03-01T13:50:18;21.53;;;13.53;;
6791;SDS011;3433;48.730;9.108;2023-03-01T13:53:10;24.47;;;15.37;;
6791;SDS011;3433;48.730;9.108;2023-03-01T13:56:08;22.20;;;14.87;;
6791;SDS011;3433;48.730;9.108;2023-03-01T13:58:58;24.13;;;15.30;;
6791;SDS011;3433;48.730;9.108;2023-03-01T14:01:51;23.70;;;15.60;;
6791;SDS011;3433;48.730;9.108;2023-03-01T14:04:39;25.63;;;16.20;;
6791;SDS011;3433;48.730;9.108;2023-03-01T14:07:27;25.43;;;16.60;;
6791;SDS011;3433;48.730;9.108;2023-03-01T14:10:15;25.80;;;16.40;;
6791;SDS011;3433;48.730;9.108;2023-03-01T14:13:08;23.10;;;15.17;;
6791;SDS011;3433;48.730;9.108;2023-03-01T14:16:12;23.87;;;16.20;;
6791;SDS011;3433;48.730;9.108;2023-03-01T14:19:10;25.10;;;16.20;;
6791;SDS011;3433;48.730;9.108;2023-03-01T14:22:16;28.73;;;18.23;;
6791;SDS011;3433;48.730;9.108;2023-03-01T14:25:16;25.73;;;16.67;;
6791;SDS011;3433;48.730;9.108;2023-03-01T14:28:14;31.50;;;17.30;;
6791;SDS011;3433;48.730;9.108;2023-03-01T14:31:22;24.27;;;16.40;;
6791;SDS011;3433;48.730;9.108;2023-03-01T14:34:19;26.50;;;17.17;;
6791;SDS011;3433;48.730;9.108;2023-03-01T14:37:11;26.00;;;17.60;;
6791;SDS011;3433;48.730;9.108;2023-03-01T14:40:04;30.30;;;18.17;;
6791;SDS011;3433;48.730;9.108;2023-03-01T14:43:08;26.50;;;17.47;;
6791;SDS011;3433;48.730;9.108;2023-03-01T14:45:58;25.57;;;17.37;;
6791;SDS011;3433;48.730;9.108;2023-03-01T14:48:48;28.63;;;17.93;;
6791;SDS011;3433;48.730;9.108;2023-03-01T14:51:36;29.23;;;17.57;;
6791;SDS011;3433;48.730;9.108;2023-03-01T14:54:25;28.10;;;18.20;;
6791;SDS011;3433;48.730;9.108;2023-03-01T14:57:16;30.00;;;17.60;;
6791;SDS011;3433;48.730;9.108;2023-03-01T15:00:06;29.83;;;18.43;;
6791;SDS011;3433;48.730;9.108;2023-03-01T15:02:56;28.67;;;18.00;;
6791;SDS011;3433;48.730;9.108;2023-03-01T15:05:48;29.63;;;17.40;;
6791;SDS011;3433;48.730;9.108;2023-03-01T15:08:35;28.07;;;16.93;;
6791;SDS011;3433;48.730;9.108;2023-03-01T15:11:27;28.00;;;18.30;;
6791;SDS011;3433;48.730;9.108;2023-03-01T15:14:26;26.70;;;17.10;;
6791;SDS011;3433;48.730;9.108;2023-03-01T15:17:19;26.23;;;17.23;;
6791;SDS011;3433;48.730;9.108;2023-03-01T15:20:15;29.67;;;18.23;;
6791;SDS011;3433;48.730;9.108;2023-03-01T15:23:12;27.87;;;17.73;;
6791;SDS011;3433;48.730;9.108;2023-03-01T15:26:18;28.23;;;17.50;;
6791;SDS011;3433;48.730;9.108;2023-03-01T15:29:15;27.73;;;17.37;;
6791;SDS011;3433;48.730;9.108;2023-03-01T15:32:06;27.80;;;18.20;;
6791;SDS011;3433;48.730;9.108;2023-03-01T15:38:28;30.33;;;20.37;;
6791;SDS011;3433;48.730;9.108;2023-03-01T15:41:22;33.60;;;18.57;;
6791;SDS011;3433;48.730;9.108;2023-03-01T15:44:14;30.97;;;19.10;;
6791;SDS011;3433;48.730;9.108;2023-03-01T15:47:03;26.20;;;17.80;;
6791;SDS011;3433;48.730;9.108;2023-03-01T15:50:12;29.03;;;17.13;;
6791;SDS011;3433;48.730;9.108;2023-03-01T15:53:06;32.90;;;18.00;;
6791;SDS011;3433;48.730;9.108;2023-03-01T15:55:57;32.50;;;18.03;;
6791;SDS011;3433;48.730;9.108;2023-03-01T15:58:44;27.67;;;17.10;;
6791;SDS011;3433;48.730;9.108;2023-03-01T16:01:31;28.70;;;16.60;;
6791;SDS011;3433;48.730;9.108;2023-03-01T16:04:20;25.20;;;16.20;;
6791;SDS011;3433;48.730;9.108;2023-03-01T16:07:08;27.40;;;15.57;;
6791;SDS011;3433;48.730;9.108;2023-03-01T16:09:57;26.10;;;16.30;;
6791;SDS011;3433;48.730;9.108;2023-03-01T16:12:45;29.93;;;18.07;;
6791;SDS011;3433;48.730;9.108;2023-03-01T16:15:33;30.20;;;16.40;;
6791;SDS011;3433;48.730;9.108;2023-03-01T16:18:21;33.60;;;18.00;;
6791;SDS011;3433;48.730;9.108;2023-03-01T16:21:10;28.50;;;17.17;;
6791;SDS011;3433;48.730;9.108;2023-03-01T16:24:05;27.73;;;17.23;;
6791;SDS011;3433;48.730;9.108;2023-03-01T16:26:54;31.00;;;17.00;;
6791;SDS011;3433;48.730;9.108;2023-03-01T16:29:42;33.90;;;16.77;;
6791;SDS011;3433;48.730;9.108;2023-03-01T16:32:29;25.93;;;16.67;;
6791;SDS011;3433;48.730;9.108;2023-03-01T16:35:18;32.17;;;17.43;;
6791;SDS011;3433;48.730;9.108;2023-03-01T16:38:06;26.67;;;16.20;;
6791;SDS011;3433;48.730;9.108;2023-03-01T16:40:53;28.73;;;16.47;;
6791;SDS011;3433;48.730;9.108;2023-03-01T16:43:42;28.37;;;16.30;;
6791;SDS011;3433;48.730;9.108;2023-03-01T16:46:31;30.53;;;16.20;;
6791;SDS011;3433;48.730;9.108;2023-03-01T16:49:18;34.33;;;16.57;;
6791;SDS011;3433;48.730;9.108;2023-03-01T16:52:06;30.20;;;16.30;;
6791;SDS011;3433;48.730;9.108;2023-03-01T16:54:53;28.07;;;16.60;;
6791;SDS011;3433;48.730;9.108;2023-03-01T16:57:40;34.83;;;17.33;;
6791;SDS011;3433;48.730;9.108;2023-03-01T17:00:29;25.80;;;16.50;;
6791;SDS011;3433;48.730;9.108;2023-03-01T17:03:16;29.43;;;16.17;;
6791;SDS011;3433;48.730;9.108;2023-03-01T17:06:03;29.03;;;17.23;;
6791;SDS011;3433;48.730;9.108;2023-03-01T17:08:52;29.90;;;16.40;;
6791;SDS011;3433;48.730;9.108;2023-03-01T17:11:39;25.87;;;16.70;;
6791;SDS011;3433;48.730;9.108;2023-03-01T17:14:26;28.60;;;15.97;;
6791;SDS011;3433;48.730;9.108;2023-03-01T17:17:16;28.17;;;17.83;;
6791;SDS011;3433;48.730;9.108;2023-03-01T17:20:03;30.03;;;16.70;;
6791;SDS011;3433;48.730;9.108;2023-03-01T17:22:51;32.33;;;16.37;;
6791;SDS011;3433;48.730;9.108;2023-03-01T17:25:40;33.63;;;17.03;;
6791;SDS011;3433;48.730;9.108;2023-03-01T17:28:30;31.63;;;17.53;;
6791;SDS011;3433;48.730;9.108;2023-03-01T17:31:19;27.53;;;16.80;;